アリススプリングス の空港の天気 - METARとTAF

アリス・スプリングス空港 ( YBAS / ASP ) - オーストラリア ノーザンテリトリーアリススプリングス
飛行場実況気象(Metar)
観測時間10/31 07:30 ACST (10/30 22:00 UTC)
風向・風速東 4m/s
視程10km以上
天気現象
なし
気温18℃
湿度28%
気圧1017hPa
METARYBAS 302200Z AUTO 10007KT 9999 // NCD 18/M01 Q1017 RF00.0/000.0
過去の天気等 Google飛行場航空写真 Wunderground天気予報

過去48時間のMETAR

飛行場予報(TAF)
発表時間: 10/31 02:59 ACST (10/30 17:29 UTC)
予報対象時間: 31日3時 ACST ~ 1日3時 ACST
風向・風速東南東 3m/s
視程10km以上
なし
31日8時 ACST から
風向・風速東 5m/s
視程10km以上
なし
TAF YBAS 301729Z 3018/3118 11005KT CAVOK
FM302300 10010KT CAVOK